Time;durP1;ratioP1;P1;durP2;ratioP2;P2;SDS_P1;SDS_P2;PMS_P1;PMS_P2;Temp;Humidity;BMP_temperature;BMP_pressure;BME280_temperature;BME280_humidity;BME280_pressure;Samples;Min_cycle;Max_cycle;Signal;HPM_P1;HPM_P2
2022/06/01 00:06:37;;;;;;;5.40;4.30;;;;;;;13.73;61.25;99136.52;435505;1270;142901;-53
2022/06/01 00:16:42;;;;;;;4.20;3.90;;;;;;;13.60;62.05;99136.41;431654;1270;141709;-53
2022/06/01 00:26:45;;;;;;;4.90;4.50;;;;;;;13.49;62.69;99139.81;443437;1269;141153;-55
2022/06/01 00:36:48;;;;;;;4.30;3.90;;;;;;;13.42;63.61;99141.88;444322;1270;142362;-50
2022/06/01 00:46:51;;;;;;;4.90;4.50;;;;;;;13.37;64.34;99141.95;444153;1271;143281;-53
2022/06/01 00:57:00;;;;;;;5.00;4.50;;;;;;;13.34;64.82;99128.86;446035;1270;142715;-54
2022/06/01 01:07:09;;;;;;;5.20;4.80;;;;;;;13.29;65.51;99119.08;433540;1270;143366;-51
2022/06/01 01:17:12;;;;;;;;;;;;;;;13.23;66.00;99121.48;437844;1270;143077;-50
2022/06/01 01:27:15;;;;;;;5.40;5.00;;;;;;;13.19;66.44;99127.79;432953;1270;133784;-53
2022/06/01 01:37:23;;;;;;;5.00;4.60;;;;;;;13.15;66.73;99169.20;445086;1271;142555;-55
2022/06/01 01:47:28;;;;;;;5.00;4.60;;;;;;;13.21;66.81;99203.56;446817;1271;141934;-53
2022/06/01 01:57:40;;;;;;;5.20;4.80;;;;;;;13.21;66.81;99192.52;440212;1270;142438;-49
2022/06/01 02:07:50;;;;;;;5.90;5.40;;;;;;;13.14;66.96;99176.88;431753;1270;143011;-53
2022/06/01 02:17:59;;;;;;;5.90;5.20;;;;;;;13.11;67.27;99168.36;432078;1270;141870;-52
2022/06/01 02:28:03;;;;;;;5.90;4.90;;;;;;;13.07;67.36;99165.14;432175;1270;142209;-56
2022/06/01 02:38:10;;;;;;;5.90;5.30;;;;;;;13.07;67.53;99153.94;433113;1270;142030;-52
2022/06/01 02:48:13;;;;;;;5.60;5.10;;;;;;;13.12;67.53;99163.72;431599;1270;142374;-50
2022/06/01 02:58:16;;;;;;;6.70;5.10;;;;;;;13.18;67.74;99181.84;432086;1270;141610;-52
2022/06/01 03:08:20;;;;;;;6.10;5.60;;;;;;;13.20;68.25;99181.30;430677;1270;145311;-51
2022/06/01 03:18:23;;;;;;;6.40;5.80;;;;;;;13.21;68.66;99174.59;431636;1270;141772;-53
2022/06/01 03:28:26;;;;;;;6.10;5.60;;;;;;;13.22;68.84;99177.85;431894;1270;141898;-53
2022/06/01 03:38:29;;;;;;;6.10;4.40;;;;;;;13.23;68.78;99180.69;430720;1271;147212;-52
2022/06/01 03:48:33;;;;;;;4.00;3.10;;;;;;;13.19;69.04;99185.61;431218;1270;141814;-50
2022/06/01 03:58:37;;;;;;;3.20;2.10;;;;;;;13.10;69.27;99179.11;435129;1271;143336;-53
2022/06/01 04:08:40;;;;;;;2.00;1.90;;;;;;;12.93;69.87;99166.21;431846;1271;142534;-52
2022/06/01 04:18:43;;;;;;;3.60;2.40;;;;;;;12.78;70.35;99154.98;435082;1271;145879;-48
2022/06/01 04:28:47;;;;;;;2.70;2.30;;;;;;;12.67;71.12;99142.67;433305;1270;145730;-54
2022/06/01 04:38:50;;;;;;;2.30;2.10;;;;;;;12.78;71.70;99124.41;438620;1269;142582;-53
2022/06/01 04:48:53;;;;;;;2.30;2.10;;;;;;;12.92;72.03;99125.05;430987;1271;141152;-50
2022/06/01 04:58:56;;;;;;;3.00;2.80;;;;;;;12.97;72.31;99117.11;431086;1271;143538;-53
2022/06/01 05:08:59;;;;;;;2.80;2.60;;;;;;;13.09;72.59;99112.78;432909;1271;142519;-49
2022/06/01 05:19:02;;;;;;;4.70;3.20;;;;;;;13.09;72.33;99111.03;430728;1270;143568;-50
2022/06/01 05:29:05;;;;;;;4.40;3.60;;;;;;;13.13;72.67;99107.02;431661;1270;184240;-53
2022/06/01 05:39:08;;;;;;;4.60;4.00;;;;;;;13.11;72.48;99115.05;433774;1270;142004;-51
2022/06/01 05:49:13;;;;;;;3.60;3.30;;;;;;;13.11;72.61;99122.33;434458;1269;143790;-50
2022/06/01 05:59:17;;;;;;;2.40;2.30;;;;;;;13.19;72.61;99130.45;433576;1270;141688;-53
2022/06/01 06:09:24;;;;;;;4.50;2.70;;;;;;;13.29;72.67;99149.82;431609;1269;142531;-53
2022/06/01 06:19:27;;;;;;;2.70;2.50;;;;;;;13.91;72.59;99145.75;431457;1270;143119;-53
2022/06/01 06:29:30;;;;;;;2.50;1.90;;;;;;;15.52;70.96;99142.42;432578;1270;142139;-52
2022/06/01 06:39:33;;;;;;;4.60;3.30;;;;;;;16.49;68.42;99142.26;432247;1271;147263;-51
2022/06/01 06:49:37;;;;;;;2.60;1.90;;;;;;;16.58;67.30;99151.54;431109;1271;145890;-53
2022/06/01 06:59:40;;;;;;;3.40;2.70;;;;;;;16.53;66.53;99152.31;431616;1270;143407;-51
2022/06/01 07:09:43;;;;;;;5.50;2.60;;;;;;;16.11;66.92;99161.06;432219;1269;142873;-53
2022/06/01 07:19:46;;;;;;;2.80;1.70;;;;;;;16.53;66.73;99170.55;431448;1270;145812;-53
2022/06/01 07:29:50;;;;;;;3.00;1.70;;;;;;;17.22;65.76;99171.20;433451;1270;141595;-57
2022/06/01 07:50:14;;;;;;;1.20;1.10;;;;;;;20.25;61.58;99166.91;432155;1270;142037;-54
2022/06/01 08:00:38;;;;;;;2.20;1.20;;;;;;;21.46;57.84;99165.52;434261;1268;142585;-53
2022/06/01 08:10:42;;;;;;;2.50;1.50;;;;;;;21.97;55.98;99169.79;434249;1270;142253;-53
2022/06/01 08:20:46;;;;;;;4.10;1.80;;;;;;;22.89;54.45;99163.02;433731;1270;140745;-53
2022/06/01 08:30:55;;;;;;;4.50;1.10;;;;;;;24.28;51.85;99162.63;432740;1270;363115;-53
2022/06/01 08:41:03;;;;;;;3.60;0.70;;;;;;;24.53;49.33;99164.42;433571;1270;141178;-55
2022/06/01 08:51:05;;;;;;;;;;;;;;;24.25;47.67;99168.94;433612;1270;140002;-54
2022/06/01 09:01:15;;;;;;;2.10;0.70;;;;;;;23.64;46.87;99163.28;432207;1271;127408;-52
2022/06/01 09:11:23;;;;;;;5.30;1.10;;;;;;;23.44;46.70;99165.27;431243;1270;141595;-51
2022/06/01 09:32:13;;;;;;;2.10;0.90;;;;;;;24.53;44.76;99166.71;431606;1271;141992;-54
2022/06/01 09:42:23;;;;;;;7.80;1.10;;;;;;;25.08;43.07;99168.27;433925;1270;140648;-53
2022/06/01 09:52:31;;;;;;;1.10;0.70;;;;;;;25.27;41.11;99168.33;435601;1270;141798;-55
2022/06/01 10:13:07;;;;;;;0.80;0.80;;;;;;;24.39;39.00;99188.00;431457;1270;142850;-54
2022/06/01 10:23:14;;;;;;;0.90;0.70;;;;;;;24.08;37.84;99191.89;433356;1269;141418;-53
2022/06/01 10:33:21;;;;;;;1.30;0.70;;;;;;;23.65;37.75;99187.45;432460;1270;141655;-55
2022/06/01 10:43:38;;;;;;;4.70;1.40;;;;;;;23.73;37.40;99185.66;433299;1270;142298;-55
2022/06/01 10:53:57;;;;;;;1.40;0.50;;;;;;;23.67;36.37;99185.16;433420;1270;141469;-54
2022/06/01 11:04:30;;;;;;;1.90;1.00;;;;;;;23.68;36.50;99184.96;433726;1270;141563;-53
2022/06/01 11:14:46;;;;;;;2.20;1.20;;;;;;;23.04;35.48;99186.73;432949;1270;141213;-53
2022/06/01 11:25:03;;;;;;;1.30;0.70;;;;;;;22.92;36.04;99196.83;430963;1270;140850;-53
2022/06/01 11:35:16;;;;;;;1.50;0.80;;;;;;;23.10;35.82;99200.15;430798;1271;145155;-54
2022/06/01 11:45:25;;;;;;;1.00;0.70;;;;;;;23.22;35.13;99211.69;434917;1270;141468;-52
2022/06/01 11:55:43;;;;;;;2.60;0.90;;;;;;;23.50;34.32;99210.41;434999;1270;140840;-51
2022/06/01 12:05:58;;;;;;;;;;;;;;;23.24;33.90;99221.06;435627;1270;141517;-55
2022/06/01 12:16:19;;;;;;;3.20;1.50;;;;;;;22.93;33.44;99231.52;434591;1270;131668;-52
2022/06/01 12:37:11;;;;;;;9.60;0.90;;;;;;;22.75;33.03;99235.38;434340;1270;141176;-53
2022/06/01 12:47:24;;;;;;;2.40;0.50;;;;;;;22.32;32.99;99228.41;431144;1270;141852;-53
2022/06/01 12:57:31;;;;;;;1.50;1.10;;;;;;;21.99;31.99;99234.22;433086;1270;143374;-52
2022/06/01 13:07:39;;;;;;;0.80;0.40;;;;;;;21.74;32.20;99240.71;431914;1271;141221;-55
2022/06/01 13:17:49;;;;;;;0.80;0.80;;;;;;;21.67;32.37;99238.62;433448;1270;141743;-52
2022/06/01 13:27:54;;;;;;;2.00;1.00;;;;;;;21.49;32.34;99242.85;433639;1271;141041;-54
2022/06/01 13:37:58;;;;;;;4.00;1.50;;;;;;;21.24;32.57;99243.05;433195;1270;141941;-54
2022/06/01 13:48:05;;;;;;;2.00;0.90;;;;;;;21.26;32.85;99248.23;437327;1270;140980;-54
2022/06/01 13:58:20;;;;;;;1.40;1.30;;;;;;;21.50;33.29;99246.52;436537;1269;140175;-55
2022/06/01 14:08:34;;;;;;;3.00;1.00;;;;;;;22.19;33.25;99250.83;445604;1270;141971;-54
2022/06/01 14:18:38;;;;;;;2.90;1.60;;;;;;;21.90;33.59;99250.73;431652;1271;140561;-53
2022/06/01 14:28:43;;;;;;;1.90;1.30;;;;;;;22.12;34.16;99242.52;432315;1271;140840;-54
2022/06/01 14:38:46;;;;;;;4.30;1.50;;;;;;;21.60;34.48;99247.11;431713;1271;142481;-52
2022/06/01 14:48:49;;;;;;;1.90;1.20;;;;;;;21.34;35.11;99256.14;431518;1271;145209;-56
2022/06/01 14:58:52;;;;;;;2.80;1.20;;;;;;;21.10;35.52;99256.38;438529;1271;141823;-56
2022/06/01 15:08:56;;;;;;;3.30;1.50;;;;;;;20.87;35.91;99248.09;440609;1271;142672;-54
2022/06/01 15:19:00;;;;;;;3.00;1.20;;;;;;;20.77;35.94;99253.48;439120;1271;140888;-54
2022/06/01 15:39:33;;;;;;;1.90;1.70;;;;;;;20.71;36.34;99244.15;432971;1268;142061;-52
2022/06/01 15:49:38;;;;;;;5.50;1.50;;;;;;;20.55;36.46;99246.21;436670;1271;140720;-58
2022/06/01 15:59:41;;;;;;;7.00;2.20;;;;;;;20.48;36.70;99249.30;431897;1270;141922;-55
2022/06/01 16:09:44;;;;;;;2.10;1.30;;;;;;;20.41;36.71;99264.36;432826;1271;141541;-54
2022/06/01 16:19:48;;;;;;;1.50;1.30;;;;;;;20.09;37.52;99273.35;440264;1270;145256;-53
2022/06/01 16:29:51;;;;;;;5.10;1.40;;;;;;;19.78;38.32;99278.17;438086;1271;143542;-51
2022/06/01 16:39:54;;;;;;;1.40;1.10;;;;;;;19.76;38.82;99284.84;432542;1271;141668;-55
2022/06/01 16:49:57;;;;;;;5.40;2.20;;;;;;;19.73;39.09;99281.41;431758;1271;142522;-53
2022/06/01 17:00:00;;;;;;;2.40;1.30;;;;;;;19.30;39.63;99280.98;432032;1270;141276;-51
2022/06/01 17:10:06;;;;;;;6.40;1.20;;;;;;;19.24;39.71;99281.30;434016;1269;142516;-51
2022/06/01 17:20:14;;;;;;;5.30;1.80;;;;;;;19.34;39.99;99281.45;434264;1271;142393;-51
2022/06/01 17:30:18;;;;;;;4.10;1.60;;;;;;;19.27;39.95;99292.34;433479;1270;146364;-52
2022/06/01 17:40:22;;;;;;;18.40;1.80;;;;;;;19.00;40.46;99299.02;434953;1271;141679;-50
2022/06/01 17:50:26;;;;;;;2.40;1.10;;;;;;;18.81;41.17;99301.96;429923;1270;141575;-55
2022/06/01 18:00:29;;;;;;;5.50;2.10;;;;;;;18.96;41.25;99298.31;438771;1270;141054;-53
2022/06/01 18:10:32;;;;;;;2.50;1.10;;;;;;;18.34;42.64;99295.41;434485;1270;140439;-51
2022/06/01 18:20:38;;;;;;;5.20;2.50;;;;;;;17.84;43.65;99291.77;430560;1270;142720;-51
2022/06/01 18:30:44;;;;;;;5.60;1.80;;;;;;;17.32;44.72;99288.72;430939;1271;141141;-52
2022/06/01 18:40:51;;;;;;;6.80;2.20;;;;;;;16.76;46.29;99288.23;432875;1269;142640;-49
2022/06/01 18:50:54;;;;;;;7.80;2.20;;;;;;;16.21;47.84;99295.96;434857;1270;142639;-52
2022/06/01 19:11:19;;;;;;;10.50;3.00;;;;;;;15.23;50.71;99324.53;431711;1270;195841;-51
2022/06/01 19:21:23;;;;;;;15.40;5.00;;;;;;;14.82;51.95;99335.33;432286;1270;141181;-52
2022/06/01 19:31:26;;;;;;;7.40;3.80;;;;;;;14.53;52.38;99338.23;431115;1270;142350;-52
2022/06/01 19:51:52;;;;;;;11.10;6.00;;;;;;;13.91;54.70;99351.45;430817;1271;141798;-53
2022/06/01 20:01:56;;;;;;;23.30;7.90;;;;;;;13.71;55.99;99349.88;431789;1270;142332;-50
2022/06/01 20:22:23;;;;;;;7.70;5.70;;;;;;;13.80;56.41;99340.73;441006;1270;142081;-53
2022/06/01 20:32:26;;;;;;;17.90;6.90;;;;;;;13.98;56.88;99363.04;437551;1270;322914;-56
2022/06/01 20:42:29;;;;;;;15.70;6.10;;;;;;;14.11;57.71;99364.30;439517;1271;141168;-53
2022/06/01 20:52:32;;;;;;;8.70;5.00;;;;;;;14.22;58.16;99369.76;433181;1270;142393;-48
2022/06/01 21:02:36;;;;;;;17.30;8.10;;;;;;;14.22;58.34;99371.16;429574;1271;142593;-59
2022/06/01 21:12:39;;;;;;;8.30;6.70;;;;;;;14.19;58.65;99367.85;430857;1271;141263;-53
2022/06/01 21:22:42;;;;;;;7.80;5.10;;;;;;;14.19;58.25;99357.78;430601;1271;184652;-52
2022/06/01 21:32:45;;;;;;;6.70;5.70;;;;;;;14.20;58.60;99364.21;437359;1271;145367;-57
2022/06/01 21:42:49;;;;;;;12.30;7.20;;;;;;;14.24;60.09;99377.86;447109;1271;142127;-58
2022/06/01 21:52:52;;;;;;;7.40;5.90;;;;;;;14.19;62.51;99382.08;432652;1270;142433;-57
2022/06/01 22:02:56;;;;;;;10.00;6.70;;;;;;;14.08;63.90;99379.17;431842;1271;141764;-58
2022/06/01 22:12:59;;;;;;;6.40;5.80;;;;;;;13.97;65.12;99374.25;432301;1270;147388;-60
2022/06/01 22:23:02;;;;;;;8.60;6.60;;;;;;;13.78;65.65;99374.64;432229;1270;143127;-60
2022/06/01 22:33:05;;;;;;;8.00;6.70;;;;;;;13.70;66.54;99383.05;432929;1270;142968;-60
2022/06/01 22:43:12;;;;;;;9.60;6.80;;;;;;;13.64;67.68;99396.36;432250;1270;142695;-60
2022/06/01 22:53:18;;;;;;;7.80;7.00;;;;;;;13.51;68.43;99408.64;431806;1271;143181;-60
2022/06/01 23:03:21;;;;;;;8.10;6.50;;;;;;;13.33;68.71;99431.85;433146;1270;141932;-56
2022/06/01 23:13:25;;;;;;;5.50;4.60;;;;;;;13.27;68.70;99439.86;431919;1270;141918;-61
2022/06/01 23:23:30;;;;;;;8.60;7.70;;;;;;;13.30;67.00;99426.96;430598;1270;141598;-60
2022/06/01 23:33:50;;;;;;;8.50;6.70;;;;;;;13.44;65.78;99429.77;433294;1270;147112;-57
2022/06/01 23:44:09;;;;;;;3.80;3.30;;;;;;;13.44;65.17;99398.97;432861;1270;142608;-56
2022/06/01 23:54:25;;;;;;;;;;;;;;;13.28;65.29;99412.48;441232;1268;141813;-56
